sensor_id;sensor_type;location;lat;lon;timestamp;P1;durP1;ratioP1;P2;durP2;ratioP2
72941;SDS011;69665;55.822;37.330;2023-05-02T02:39:21;4.68;;;2.05;;
72941;SDS011;69665;55.822;37.330;2023-05-02T02:42:02;4.57;;;1.88;;
72941;SDS011;69665;55.822;37.330;2023-05-02T02:44:51;5.15;;;1.90;;
72941;SDS011;69665;55.822;37.330;2023-05-02T02:50:18;5.63;;;1.75;;
72941;SDS011;69665;55.822;37.330;2023-05-02T02:52:58;5.18;;;1.95;;
72941;SDS011;69665;55.822;37.330;2023-05-02T03:00:30;6.78;;;1.70;;
72941;SDS011;69665;55.822;37.330;2023-05-02T03:02:57;4.03;;;1.75;;
72941;SDS011;69665;55.822;37.330;2023-05-02T03:05:22;4.40;;;1.73;;
72941;SDS011;69665;55.822;37.330;2023-05-02T03:07:48;3.78;;;1.60;;
72941;SDS011;69665;55.822;37.330;2023-05-02T03:10:15;5.78;;;2.10;;
72941;SDS011;69665;55.822;37.330;2023-05-02T03:12:42;6.93;;;1.90;;
72941;SDS011;69665;55.822;37.330;2023-05-02T03:18:09;4.38;;;2.00;;
72941;SDS011;69665;55.822;37.330;2023-05-02T03:20:35;4.93;;;1.60;;
72941;SDS011;69665;55.822;37.330;2023-05-02T03:23:03;4.55;;;1.73;;
72941;SDS011;69665;55.822;37.330;2023-05-02T03:25:32;4.68;;;1.73;;
72941;SDS011;69665;55.822;37.330;2023-05-02T03:27:58;6.40;;;1.95;;
72941;SDS011;69665;55.822;37.330;2023-05-02T03:30:23;6.55;;;2.20;;
72941;SDS011;69665;55.822;37.330;2023-05-02T03:32:49;4.35;;;1.83;;
72941;SDS011;69665;55.822;37.330;2023-05-02T03:35:15;4.82;;;2.20;;
72941;SDS011;69665;55.822;37.330;2023-05-02T03:37:44;4.95;;;2.22;;
72941;SDS011;69665;55.822;37.330;2023-05-02T03:40:10;8.80;;;2.55;;
72941;SDS011;69665;55.822;37.330;2023-05-02T06:26:45;4.80;;;1.70;;
72941;SDS011;69665;55.822;37.330;2023-05-02T06:29:11;5.13;;;1.75;;
72941;SDS011;69665;55.822;37.330;2023-05-02T06:31:36;7.65;;;1.80;;
72941;SDS011;69665;55.822;37.330;2023-05-02T06:34:02;3.60;;;1.40;;
72941;SDS011;69665;55.822;37.330;2023-05-02T06:36:27;3.60;;;1.40;;
72941;SDS011;69665;55.822;37.330;2023-05-02T06:38:54;3.03;;;1.20;;
72941;SDS011;69665;55.822;37.330;2023-05-02T06:41:20;2.25;;;1.00;;
72941;SDS011;69665;55.822;37.330;2023-05-02T06:43:46;4.82;;;1.35;;
72941;SDS011;69665;55.822;37.330;2023-05-02T06:46:11;3.58;;;1.20;;
72941;SDS011;69665;55.822;37.330;2023-05-02T06:48:37;3.25;;;1.05;;
72941;SDS011;69665;55.822;37.330;2023-05-02T06:51:02;4.15;;;0.80;;
72941;SDS011;69665;55.822;37.330;2023-05-02T06:53:29;2.95;;;1.00;;
72941;SDS011;69665;55.822;37.330;2023-05-02T06:55:55;2.55;;;1.15;;
72941;SDS011;69665;55.822;37.330;2023-05-02T06:58:21;3.25;;;1.00;;
72941;SDS011;69665;55.822;37.330;2023-05-02T07:00:47;4.20;;;0.90;;
72941;SDS011;69665;55.822;37.330;2023-05-02T07:03:13;3.05;;;1.10;;
72941;SDS011;69665;55.822;37.330;2023-05-02T07:40:08;1.23;;;0.60;;
72941;SDS011;69665;55.822;37.330;2023-05-02T07:42:34;1.17;;;0.70;;
72941;SDS011;69665;55.822;37.330;2023-05-02T07:45:00;1.70;;;0.63;;
72941;SDS011;69665;55.822;37.330;2023-05-02T07:47:26;2.05;;;0.65;;
72941;SDS011;69665;55.822;37.330;2023-05-02T07:49:52;1.33;;;0.50;;
72941;SDS011;69665;55.822;37.330;2023-05-02T07:52:18;2.63;;;0.60;;
72941;SDS011;69665;55.822;37.330;2023-05-02T07:54:44;1.80;;;0.65;;
72941;SDS011;69665;55.822;37.330;2023-05-02T07:57:11;1.75;;;0.70;;
72941;SDS011;69665;55.822;37.330;2023-05-02T08:00:26;2.90;;;0.70;;
72941;SDS011;69665;55.822;37.330;2023-05-02T08:02:52;0.95;;;0.55;;
72941;SDS011;69665;55.822;37.330;2023-05-02T08:05:17;1.10;;;0.50;;
72941;SDS011;69665;55.822;37.330;2023-05-02T08:07:43;1.73;;;0.60;;
72941;SDS011;69665;55.822;37.330;2023-05-02T08:10:08;2.63;;;0.80;;
72941;SDS011;69665;55.822;37.330;2023-05-02T08:12:38;3.17;;;0.70;;
72941;SDS011;69665;55.822;37.330;2023-05-02T08:15:05;2.03;;;0.77;;
72941;SDS011;69665;55.822;37.330;2023-05-02T08:17:32;1.65;;;0.73;;
72941;SDS011;69665;55.822;37.330;2023-05-02T08:19:58;3.65;;;0.70;;
72941;SDS011;69665;55.822;37.330;2023-05-02T08:22:23;3.03;;;0.82;;
72941;SDS011;69665;55.822;37.330;2023-05-02T08:24:49;1.65;;;0.60;;
72941;SDS011;69665;55.822;37.330;2023-05-02T08:27:14;2.05;;;0.63;;
72941;SDS011;69665;55.822;37.330;2023-05-02T08:29:40;2.35;;;0.80;;
72941;SDS011;69665;55.822;37.330;2023-05-02T08:32:05;1.15;;;0.57;;
72941;SDS011;69665;55.822;37.330;2023-05-02T08:34:31;1.83;;;0.60;;
72941;SDS011;69665;55.822;37.330;2023-05-02T08:36:58;2.15;;;0.70;;
72941;SDS011;69665;55.822;37.330;2023-05-02T08:39:23;1.90;;;0.60;;
72941;SDS011;69665;55.822;37.330;2023-05-02T08:41:52;2.13;;;0.70;;
72941;SDS011;69665;55.822;37.330;2023-05-02T08:44:18;2.30;;;0.98;;
72941;SDS011;69665;55.822;37.330;2023-05-02T08:46:43;1.73;;;0.60;;
72941;SDS011;69665;55.822;37.330;2023-05-02T08:49:09;1.70;;;0.80;;
72941;SDS011;69665;55.822;37.330;2023-05-02T08:51:36;2.58;;;0.73;;
72941;SDS011;69665;55.822;37.330;2023-05-02T08:54:02;1.92;;;0.80;;
72941;SDS011;69665;55.822;37.330;2023-05-02T08:56:28;1.88;;;0.65;;
72941;SDS011;69665;55.822;37.330;2023-05-02T08:58:54;2.22;;;0.80;;
72941;SDS011;69665;55.822;37.330;2023-05-02T09:01:21;1.65;;;0.75;;
72941;SDS011;69665;55.822;37.330;2023-05-02T09:03:48;4.20;;;0.90;;
72941;SDS011;69665;55.822;37.330;2023-05-02T09:06:39;2.50;;;0.73;;
72941;SDS011;69665;55.822;37.330;2023-05-02T09:09:30;2.10;;;0.88;;
72941;SDS011;69665;55.822;37.330;2023-05-02T09:11:58;3.50;;;1.10;;
72941;SDS011;69665;55.822;37.330;2023-05-02T09:14:24;2.58;;;0.90;;
72941;SDS011;69665;55.822;37.330;2023-05-02T09:16:49;2.10;;;0.80;;
